sensor_id;sensor_type;location;lat;lon;timestamp;P1;durP1;ratioP1;P2;durP2;ratioP2
27424;SDS011;15244;49.088;11.886;2023-03-01T00:03:10;28.58;;;17.35;;
27424;SDS011;15244;49.088;11.886;2023-03-01T00:08:11;28.63;;;17.90;;
27424;SDS011;15244;49.088;11.886;2023-03-01T00:13:13;28.00;;;17.85;;
27424;SDS011;15244;49.088;11.886;2023-03-01T00:18:14;26.55;;;17.95;;
27424;SDS011;15244;49.088;11.886;2023-03-01T00:23:16;23.08;;;16.70;;
27424;SDS011;15244;49.088;11.886;2023-03-01T00:28:18;27.50;;;17.92;;
27424;SDS011;15244;49.088;11.886;2023-03-01T00:33:20;33.70;;;18.55;;
27424;SDS011;15244;49.088;11.886;2023-03-01T00:38:21;29.00;;;18.75;;
27424;SDS011;15244;49.088;11.886;2023-03-01T00:43:23;29.25;;;18.30;;
27424;SDS011;15244;49.088;11.886;2023-03-01T00:48:24;31.27;;;18.42;;
27424;SDS011;15244;49.088;11.886;2023-03-01T00:53:26;28.05;;;18.65;;
27424;SDS011;15244;49.088;11.886;2023-03-01T00:58:27;26.73;;;18.45;;
27424;SDS011;15244;49.088;11.886;2023-03-01T01:03:29;28.33;;;18.02;;
27424;SDS011;15244;49.088;11.886;2023-03-01T01:08:31;29.17;;;17.90;;
27424;SDS011;15244;49.088;11.886;2023-03-01T01:13:32;30.70;;;18.33;;
27424;SDS011;15244;49.088;11.886;2023-03-01T01:18:34;33.42;;;19.30;;
27424;SDS011;15244;49.088;11.886;2023-03-01T01:23:36;27.70;;;18.45;;
27424;SDS011;15244;49.088;11.886;2023-03-01T01:28:40;28.52;;;18.05;;
27424;SDS011;15244;49.088;11.886;2023-03-01T01:33:41;30.02;;;18.65;;
27424;SDS011;15244;49.088;11.886;2023-03-01T01:38:43;30.20;;;19.60;;
27424;SDS011;15244;49.088;11.886;2023-03-01T01:43:49;31.00;;;19.00;;
27424;SDS011;15244;49.088;11.886;2023-03-01T01:49:17;29.58;;;18.38;;
27424;SDS011;15244;49.088;11.886;2023-03-01T01:54:26;28.48;;;17.63;;
27424;SDS011;15244;49.088;11.886;2023-03-01T01:59:32;28.98;;;18.27;;
27424;SDS011;15244;49.088;11.886;2023-03-01T02:04:35;28.10;;;17.92;;
27424;SDS011;15244;49.088;11.886;2023-03-01T02:09:37;29.27;;;17.95;;
27424;SDS011;15244;49.088;11.886;2023-03-01T02:14:39;26.23;;;17.50;;
27424;SDS011;15244;49.088;11.886;2023-03-01T02:19:48;29.13;;;18.48;;
27424;SDS011;15244;49.088;11.886;2023-03-01T02:25:07;28.17;;;17.63;;
27424;SDS011;15244;49.088;11.886;2023-03-01T02:30:21;28.48;;;17.75;;
27424;SDS011;15244;49.088;11.886;2023-03-01T02:35:23;30.42;;;18.20;;
27424;SDS011;15244;49.088;11.886;2023-03-01T02:40:25;25.58;;;17.40;;
27424;SDS011;15244;49.088;11.886;2023-03-01T02:45:27;30.13;;;19.17;;
27424;SDS011;15244;49.088;11.886;2023-03-01T02:55:30;33.28;;;17.73;;
27424;SDS011;15244;49.088;11.886;2023-03-01T03:00:35;27.02;;;16.95;;
27424;SDS011;15244;49.088;11.886;2023-03-01T03:05:49;27.65;;;17.85;;
27424;SDS011;15244;49.088;11.886;2023-03-01T03:10:51;28.38;;;17.50;;
27424;SDS011;15244;49.088;11.886;2023-03-01T03:15:53;28.95;;;17.73;;
27424;SDS011;15244;49.088;11.886;2023-03-01T03:20:54;30.55;;;18.52;;
27424;SDS011;15244;49.088;11.886;2023-03-01T03:25:56;29.48;;;18.52;;
27424;SDS011;15244;49.088;11.886;2023-03-01T03:30:57;27.80;;;17.80;;
27424;SDS011;15244;49.088;11.886;2023-03-01T03:35:59;30.25;;;16.92;;
27424;SDS011;15244;49.088;11.886;2023-03-01T03:41:02;29.50;;;17.08;;
27424;SDS011;15244;49.088;11.886;2023-03-01T03:46:09;29.02;;;17.65;;
27424;SDS011;15244;49.088;11.886;2023-03-01T03:51:12;25.92;;;17.90;;
27424;SDS011;15244;49.088;11.886;2023-03-01T03:56:15;28.70;;;17.38;;
27424;SDS011;15244;49.088;11.886;2023-03-01T04:01:17;27.35;;;16.73;;
27424;SDS011;15244;49.088;11.886;2023-03-01T04:06:18;28.95;;;18.05;;
27424;SDS011;15244;49.088;11.886;2023-03-01T04:11:20;31.33;;;18.60;;
27424;SDS011;15244;49.088;11.886;2023-03-01T04:16:27;31.13;;;18.52;;
27424;SDS011;15244;49.088;11.886;2023-03-01T04:21:30;28.27;;;17.50;;
27424;SDS011;15244;49.088;11.886;2023-03-01T04:26:31;30.92;;;18.63;;
27424;SDS011;15244;49.088;11.886;2023-03-01T04:31:33;28.95;;;17.60;;
27424;SDS011;15244;49.088;11.886;2023-03-01T04:36:35;30.48;;;19.67;;
27424;SDS011;15244;49.088;11.886;2023-03-01T04:41:37;31.25;;;18.80;;
27424;SDS011;15244;49.088;11.886;2023-03-01T04:46:40;28.85;;;18.00;;
27424;SDS011;15244;49.088;11.886;2023-03-01T04:51:41;31.05;;;16.65;;
27424;SDS011;15244;49.088;11.886;2023-03-01T04:56:44;29.60;;;17.17;;
27424;SDS011;15244;49.088;11.886;2023-03-01T05:01:45;33.63;;;18.52;;
27424;SDS011;15244;49.088;11.886;2023-03-01T05:06:47;29.20;;;17.80;;
27424;SDS011;15244;49.088;11.886;2023-03-01T05:11:48;28.13;;;18.75;;
27424;SDS011;15244;49.088;11.886;2023-03-01T05:16:51;35.45;;;18.90;;
27424;SDS011;15244;49.088;11.886;2023-03-01T05:21:52;28.55;;;18.13;;
27424;SDS011;15244;49.088;11.886;2023-03-01T05:27:03;34.67;;;18.83;;
27424;SDS011;15244;49.088;11.886;2023-03-01T05:32:04;28.63;;;18.45;;
27424;SDS011;15244;49.088;11.886;2023-03-01T05:37:06;31.55;;;18.95;;
27424;SDS011;15244;49.088;11.886;2023-03-01T05:42:10;31.17;;;18.48;;
27424;SDS011;15244;49.088;11.886;2023-03-01T05:47:12;31.98;;;18.38;;
27424;SDS011;15244;49.088;11.886;2023-03-01T05:52:14;33.67;;;21.05;;
27424;SDS011;15244;49.088;11.886;2023-03-01T05:57:15;37.00;;;20.33;;
27424;SDS011;15244;49.088;11.886;2023-03-01T06:02:17;34.25;;;19.25;;
27424;SDS011;15244;49.088;11.886;2023-03-01T06:07:18;37.00;;;19.17;;
27424;SDS011;15244;49.088;11.886;2023-03-01T06:12:20;36.67;;;21.38;;
27424;SDS011;15244;49.088;11.886;2023-03-01T06:17:21;34.25;;;19.58;;
27424;SDS011;15244;49.088;11.886;2023-03-01T06:22:23;32.40;;;19.25;;
27424;SDS011;15244;49.088;11.886;2023-03-01T06:27:25;33.40;;;19.65;;
27424;SDS011;15244;49.088;11.886;2023-03-01T06:32:27;31.27;;;19.20;;
27424;SDS011;15244;49.088;11.886;2023-03-01T06:37:28;35.05;;;18.92;;
27424;SDS011;15244;49.088;11.886;2023-03-01T06:42:30;36.20;;;20.33;;
27424;SDS011;15244;49.088;11.886;2023-03-01T06:47:32;37.20;;;20.52;;
27424;SDS011;15244;49.088;11.886;2023-03-01T06:52:34;35.30;;;20.50;;
27424;SDS011;15244;49.088;11.886;2023-03-01T06:57:36;33.47;;;20.77;;
27424;SDS011;15244;49.088;11.886;2023-03-01T07:02:37;36.10;;;20.95;;
27424;SDS011;15244;49.088;11.886;2023-03-01T07:07:39;36.90;;;21.23;;
27424;SDS011;15244;49.088;11.886;2023-03-01T07:12:40;38.85;;;22.48;;
27424;SDS011;15244;49.088;11.886;2023-03-01T07:17:43;32.58;;;20.73;;
27424;SDS011;15244;49.088;11.886;2023-03-01T07:22:45;38.60;;;22.27;;
27424;SDS011;15244;49.088;11.886;2023-03-01T07:27:50;37.47;;;21.08;;
27424;SDS011;15244;49.088;11.886;2023-03-01T07:32:53;35.60;;;21.83;;
27424;SDS011;15244;49.088;11.886;2023-03-01T07:37:56;41.38;;;22.50;;
27424;SDS011;15244;49.088;11.886;2023-03-01T07:42:57;38.28;;;21.80;;
27424;SDS011;15244;49.088;11.886;2023-03-01T07:47:59;37.97;;;21.85;;
27424;SDS011;15244;49.088;11.886;2023-03-01T07:53:01;34.42;;;21.58;;
27424;SDS011;15244;49.088;11.886;2023-03-01T07:58:03;34.97;;;22.23;;
27424;SDS011;15244;49.088;11.886;2023-03-01T08:03:05;40.38;;;22.60;;
27424;SDS011;15244;49.088;11.886;2023-03-01T08:08:07;42.28;;;23.75;;
27424;SDS011;15244;49.088;11.886;2023-03-01T08:13:08;37.83;;;22.00;;
27424;SDS011;15244;49.088;11.886;2023-03-01T08:18:10;35.30;;;21.88;;
27424;SDS011;15244;49.088;11.886;2023-03-01T08:23:12;35.80;;;22.25;;
27424;SDS011;15244;49.088;11.886;2023-03-01T08:28:14;36.63;;;21.63;;
27424;SDS011;15244;49.088;11.886;2023-03-01T08:33:15;36.05;;;22.48;;
27424;SDS011;15244;49.088;11.886;2023-03-01T08:38:17;37.05;;;22.77;;
27424;SDS011;15244;49.088;11.886;2023-03-01T08:43:18;37.60;;;22.10;;
27424;SDS011;15244;49.088;11.886;2023-03-01T08:48:22;35.53;;;21.95;;
27424;SDS011;15244;49.088;11.886;2023-03-01T08:53:23;36.55;;;21.92;;
27424;SDS011;15244;49.088;11.886;2023-03-01T08:58:25;37.30;;;23.05;;
27424;SDS011;15244;49.088;11.886;2023-03-01T09:03:26;42.00;;;21.88;;
27424;SDS011;15244;49.088;11.886;2023-03-01T09:08:28;37.55;;;21.30;;
27424;SDS011;15244;49.088;11.886;2023-03-01T09:13:30;38.58;;;21.55;;
27424;SDS011;15244;49.088;11.886;2023-03-01T09:18:32;32.25;;;20.88;;
27424;SDS011;15244;49.088;11.886;2023-03-01T09:23:38;38.03;;;23.13;;
27424;SDS011;15244;49.088;11.886;2023-03-01T09:28:42;29.00;;;16.57;;
27424;SDS011;15244;49.088;11.886;2023-03-01T09:33:46;35.80;;;19.27;;
27424;SDS011;15244;49.088;11.886;2023-03-01T09:38:49;36.00;;;20.48;;
27424;SDS011;15244;49.088;11.886;2023-03-01T09:43:52;31.77;;;20.80;;
27424;SDS011;15244;49.088;11.886;2023-03-01T09:49:03;37.90;;;21.33;;
27424;SDS011;15244;49.088;11.886;2023-03-01T09:54:11;33.33;;;19.98;;
27424;SDS011;15244;49.088;11.886;2023-03-01T10:09:36;35.03;;;21.52;;
27424;SDS011;15244;49.088;11.886;2023-03-01T10:14:43;31.25;;;20.10;;
27424;SDS011;15244;49.088;11.886;2023-03-01T10:19:55;28.10;;;16.83;;
27424;SDS011;15244;49.088;11.886;2023-03-01T10:25:12;25.17;;;16.65;;
27424;SDS011;15244;49.088;11.886;2023-03-01T10:35:45;28.83;;;16.33;;
27424;SDS011;15244;49.088;11.886;2023-03-01T10:40:59;24.67;;;17.30;;
27424;SDS011;15244;49.088;11.886;2023-03-01T10:46:21;27.35;;;16.55;;
27424;SDS011;15244;49.088;11.886;2023-03-01T10:51:30;24.83;;;16.33;;
27424;SDS011;15244;49.088;11.886;2023-03-01T10:56:45;21.92;;;15.40;;
27424;SDS011;15244;49.088;11.886;2023-03-01T11:02:00;19.00;;;12.60;;
27424;SDS011;15244;49.088;11.886;2023-03-01T11:07:15;18.02;;;12.68;;
27424;SDS011;15244;49.088;11.886;2023-03-01T11:12:17;22.88;;;15.15;;
27424;SDS011;15244;49.088;11.886;2023-03-01T11:17:29;24.30;;;14.88;;
27424;SDS011;15244;49.088;11.886;2023-03-01T11:23:12;23.98;;;15.70;;
27424;SDS011;15244;49.088;11.886;2023-03-01T11:28:16;22.83;;;15.18;;
27424;SDS011;15244;49.088;11.886;2023-03-01T11:33:24;26.88;;;15.95;;
27424;SDS011;15244;49.088;11.886;2023-03-01T11:38:52;19.95;;;14.85;;
27424;SDS011;15244;49.088;11.886;2023-03-01T11:43:56;21.75;;;13.93;;
27424;SDS011;15244;49.088;11.886;2023-03-01T12:05:20;22.25;;;13.98;;
27424;SDS011;15244;49.088;11.886;2023-03-01T12:10:46;17.25;;;11.40;;
27424;SDS011;15244;49.088;11.886;2023-03-01T12:32:43;21.38;;;14.82;;
27424;SDS011;15244;49.088;11.886;2023-03-01T12:43:12;21.80;;;14.88;;
27424;SDS011;15244;49.088;11.886;2023-03-01T12:48:26;26.60;;;15.85;;
27424;SDS011;15244;49.088;11.886;2023-03-01T12:53:48;23.48;;;16.33;;
27424;SDS011;15244;49.088;11.886;2023-03-01T13:10:11;24.05;;;15.95;;
27424;SDS011;15244;49.088;11.886;2023-03-01T13:31:00;27.00;;;18.42;;
27424;SDS011;15244;49.088;11.886;2023-03-01T13:36:03;25.77;;;17.33;;
27424;SDS011;15244;49.088;11.886;2023-03-01T13:41:05;24.30;;;17.60;;
27424;SDS011;15244;49.088;11.886;2023-03-01T13:46:17;23.40;;;16.60;;
27424;SDS011;15244;49.088;11.886;2023-03-01T13:51:23;24.17;;;16.73;;
27424;SDS011;15244;49.088;11.886;2023-03-01T13:56:28;28.45;;;17.67;;
27424;SDS011;15244;49.088;11.886;2023-03-01T14:01:37;24.42;;;17.55;;
27424;SDS011;15244;49.088;11.886;2023-03-01T14:06:40;26.10;;;16.45;;
27424;SDS011;15244;49.088;11.886;2023-03-01T14:11:52;25.77;;;18.90;;
27424;SDS011;15244;49.088;11.886;2023-03-01T14:22:17;28.77;;;18.83;;
27424;SDS011;15244;49.088;11.886;2023-03-01T14:27:26;25.48;;;17.15;;
27424;SDS011;15244;49.088;11.886;2023-03-01T14:32:31;25.65;;;17.65;;
27424;SDS011;15244;49.088;11.886;2023-03-01T14:37:34;25.65;;;19.13;;
27424;SDS011;15244;49.088;11.886;2023-03-01T14:42:36;24.95;;;17.90;;
27424;SDS011;15244;49.088;11.886;2023-03-01T14:47:38;27.58;;;18.42;;
27424;SDS011;15244;49.088;11.886;2023-03-01T14:52:42;22.67;;;17.33;;
27424;SDS011;15244;49.088;11.886;2023-03-01T14:57:48;24.65;;;18.17;;
27424;SDS011;15244;49.088;11.886;2023-03-01T15:02:52;26.20;;;18.05;;
27424;SDS011;15244;49.088;11.886;2023-03-01T15:07:55;24.38;;;17.45;;
27424;SDS011;15244;49.088;11.886;2023-03-01T15:13:12;25.23;;;16.27;;
27424;SDS011;15244;49.088;11.886;2023-03-01T15:23:21;21.60;;;15.90;;
27424;SDS011;15244;49.088;11.886;2023-03-01T15:28:25;24.70;;;16.10;;
27424;SDS011;15244;49.088;11.886;2023-03-01T15:33:38;22.02;;;15.30;;
27424;SDS011;15244;49.088;11.886;2023-03-01T15:38:53;21.90;;;15.73;;
27424;SDS011;15244;49.088;11.886;2023-03-01T15:43:58;18.08;;;14.07;;
27424;SDS011;15244;49.088;11.886;2023-03-01T15:49:02;24.63;;;16.48;;
27424;SDS011;15244;49.088;11.886;2023-03-01T15:54:06;26.10;;;16.42;;
27424;SDS011;15244;49.088;11.886;2023-03-01T15:59:22;21.15;;;15.20;;
27424;SDS011;15244;49.088;11.886;2023-03-01T16:04:24;20.52;;;15.65;;
27424;SDS011;15244;49.088;11.886;2023-03-01T16:09:26;22.08;;;15.52;;
27424;SDS011;15244;49.088;11.886;2023-03-01T16:14:27;22.30;;;16.20;;
27424;SDS011;15244;49.088;11.886;2023-03-01T16:19:29;21.88;;;16.83;;
27424;SDS011;15244;49.088;11.886;2023-03-01T16:24:31;24.27;;;16.27;;
27424;SDS011;15244;49.088;11.886;2023-03-01T16:29:32;23.50;;;17.08;;
27424;SDS011;15244;49.088;11.886;2023-03-01T16:34:34;21.95;;;16.08;;
27424;SDS011;15244;49.088;11.886;2023-03-01T16:39:37;23.42;;;17.02;;
27424;SDS011;15244;49.088;11.886;2023-03-01T16:44:39;24.52;;;17.52;;
27424;SDS011;15244;49.088;11.886;2023-03-01T16:49:41;27.75;;;18.35;;
27424;SDS011;15244;49.088;11.886;2023-03-01T16:54:42;24.38;;;17.67;;
27424;SDS011;15244;49.088;11.886;2023-03-01T16:59:44;22.73;;;17.35;;
27424;SDS011;15244;49.088;11.886;2023-03-01T17:04:53;22.52;;;16.75;;
27424;SDS011;15244;49.088;11.886;2023-03-01T17:09:55;25.05;;;18.10;;
27424;SDS011;15244;49.088;11.886;2023-03-01T17:14:56;26.20;;;17.40;;
27424;SDS011;15244;49.088;11.886;2023-03-01T17:19:58;27.17;;;18.33;;
27424;SDS011;15244;49.088;11.886;2023-03-01T17:24:59;23.52;;;17.60;;
27424;SDS011;15244;49.088;11.886;2023-03-01T17:30:02;28.98;;;18.00;;
27424;SDS011;15244;49.088;11.886;2023-03-01T17:35:04;31.33;;;18.05;;
27424;SDS011;15244;49.088;11.886;2023-03-01T17:40:08;26.30;;;17.52;;
27424;SDS011;15244;49.088;11.886;2023-03-01T17:45:10;25.35;;;18.17;;
27424;SDS011;15244;49.088;11.886;2023-03-01T17:50:12;26.52;;;17.65;;
27424;SDS011;15244;49.088;11.886;2023-03-01T17:55:13;24.45;;;17.70;;
27424;SDS011;15244;49.088;11.886;2023-03-01T18:00:15;27.20;;;17.80;;
27424;SDS011;15244;49.088;11.886;2023-03-01T18:05:18;24.80;;;17.20;;
27424;SDS011;15244;49.088;11.886;2023-03-01T18:10:20;27.85;;;18.83;;
27424;SDS011;15244;49.088;11.886;2023-03-01T18:15:21;30.10;;;19.42;;
27424;SDS011;15244;49.088;11.886;2023-03-01T18:20:23;28.05;;;18.65;;
27424;SDS011;15244;49.088;11.886;2023-03-01T18:25:24;27.90;;;18.98;;
27424;SDS011;15244;49.088;11.886;2023-03-01T18:30:26;28.67;;;19.33;;
27424;SDS011;15244;49.088;11.886;2023-03-01T18:35:28;27.02;;;18.38;;
27424;SDS011;15244;49.088;11.886;2023-03-01T18:40:32;27.13;;;18.15;;
27424;SDS011;15244;49.088;11.886;2023-03-01T18:45:34;25.73;;;17.48;;
27424;SDS011;15244;49.088;11.886;2023-03-01T18:50:36;26.55;;;16.92;;
27424;SDS011;15244;49.088;11.886;2023-03-01T18:55:38;22.30;;;16.63;;
27424;SDS011;15244;49.088;11.886;2023-03-01T19:00:39;28.20;;;17.65;;
27424;SDS011;15244;49.088;11.886;2023-03-01T19:05:41;24.42;;;16.77;;
27424;SDS011;15244;49.088;11.886;2023-03-01T19:10:43;23.48;;;16.80;;
27424;SDS011;15244;49.088;11.886;2023-03-01T19:15:45;24.90;;;16.50;;
27424;SDS011;15244;49.088;11.886;2023-03-01T19:20:46;26.45;;;16.90;;
27424;SDS011;15244;49.088;11.886;2023-03-01T19:25:50;22.88;;;17.05;;
27424;SDS011;15244;49.088;11.886;2023-03-01T19:30:56;26.75;;;18.10;;
27424;SDS011;15244;49.088;11.886;2023-03-01T19:36:03;27.70;;;17.67;;
27424;SDS011;15244;49.088;11.886;2023-03-01T19:41:06;29.17;;;18.38;;
27424;SDS011;15244;49.088;11.886;2023-03-01T19:46:10;29.05;;;18.23;;
27424;SDS011;15244;49.088;11.886;2023-03-01T19:51:12;27.88;;;18.00;;
27424;SDS011;15244;49.088;11.886;2023-03-01T19:56:14;24.85;;;16.08;;
27424;SDS011;15244;49.088;11.886;2023-03-01T20:01:17;23.58;;;15.13;;
27424;SDS011;15244;49.088;11.886;2023-03-01T20:06:20;20.35;;;14.80;;
27424;SDS011;15244;49.088;11.886;2023-03-01T20:11:22;23.58;;;16.10;;
27424;SDS011;15244;49.088;11.886;2023-03-01T20:16:24;22.83;;;15.60;;
27424;SDS011;15244;49.088;11.886;2023-03-01T20:21:27;21.75;;;15.35;;
27424;SDS011;15244;49.088;11.886;2023-03-01T20:26:29;25.67;;;15.38;;
27424;SDS011;15244;49.088;11.886;2023-03-01T20:31:31;28.65;;;14.80;;
27424;SDS011;15244;49.088;11.886;2023-03-01T20:36:32;23.05;;;15.40;;
27424;SDS011;15244;49.088;11.886;2023-03-01T20:41:35;24.10;;;15.50;;
27424;SDS011;15244;49.088;11.886;2023-03-01T20:46:40;27.05;;;15.63;;
27424;SDS011;15244;49.088;11.886;2023-03-01T20:51:42;24.13;;;15.27;;
27424;SDS011;15244;49.088;11.886;2023-03-01T20:56:44;23.60;;;15.73;;
27424;SDS011;15244;49.088;11.886;2023-03-01T21:01:47;25.77;;;16.15;;
27424;SDS011;15244;49.088;11.886;2023-03-01T21:06:49;27.08;;;17.02;;
27424;SDS011;15244;49.088;11.886;2023-03-01T21:11:51;23.52;;;15.98;;
27424;SDS011;15244;49.088;11.886;2023-03-01T21:16:52;30.38;;;17.08;;
27424;SDS011;15244;49.088;11.886;2023-03-01T21:21:54;25.05;;;16.80;;
27424;SDS011;15244;49.088;11.886;2023-03-01T21:26:55;25.25;;;16.88;;
27424;SDS011;15244;49.088;11.886;2023-03-01T21:31:57;26.65;;;16.75;;
27424;SDS011;15244;49.088;11.886;2023-03-01T21:36:59;28.33;;;18.02;;
27424;SDS011;15244;49.088;11.886;2023-03-01T21:42:02;30.02;;;18.27;;
27424;SDS011;15244;49.088;11.886;2023-03-01T21:47:05;30.02;;;18.10;;
27424;SDS011;15244;49.088;11.886;2023-03-01T21:52:07;28.77;;;17.42;;
27424;SDS011;15244;49.088;11.886;2023-03-01T21:57:08;30.13;;;18.08;;
27424;SDS011;15244;49.088;11.886;2023-03-01T22:02:10;32.38;;;18.33;;
27424;SDS011;15244;49.088;11.886;2023-03-01T22:07:12;27.88;;;18.00;;
27424;SDS011;15244;49.088;11.886;2023-03-01T22:12:14;31.77;;;18.90;;
27424;SDS011;15244;49.088;11.886;2023-03-01T22:17:16;28.52;;;18.20;;
27424;SDS011;15244;49.088;11.886;2023-03-01T22:22:17;31.15;;;19.50;;
27424;SDS011;15244;49.088;11.886;2023-03-01T22:27:19;32.40;;;18.75;;
27424;SDS011;15244;49.088;11.886;2023-03-01T22:32:20;28.48;;;18.60;;
27424;SDS011;15244;49.088;11.886;2023-03-01T22:37:22;29.42;;;19.02;;
27424;SDS011;15244;49.088;11.886;2023-03-01T22:42:24;29.42;;;18.42;;
27424;SDS011;15244;49.088;11.886;2023-03-01T22:47:25;30.88;;;18.90;;
27424;SDS011;15244;49.088;11.886;2023-03-01T22:52:27;30.05;;;19.00;;
27424;SDS011;15244;49.088;11.886;2023-03-01T22:57:29;32.10;;;19.67;;
27424;SDS011;15244;49.088;11.886;2023-03-01T23:02:31;28.65;;;17.95;;
27424;SDS011;15244;49.088;11.886;2023-03-01T23:07:32;29.80;;;19.33;;
27424;SDS011;15244;49.088;11.886;2023-03-01T23:12:34;28.08;;;18.63;;
27424;SDS011;15244;49.088;11.886;2023-03-01T23:17:36;31.02;;;17.58;;
27424;SDS011;15244;49.088;11.886;2023-03-01T23:22:38;30.17;;;17.98;;
27424;SDS011;15244;49.088;11.886;2023-03-01T23:27:40;26.58;;;17.33;;
27424;SDS011;15244;49.088;11.886;2023-03-01T23:32:42;27.05;;;16.83;;
27424;SDS011;15244;49.088;11.886;2023-03-01T23:37:44;27.65;;;17.23;;
27424;SDS011;15244;49.088;11.886;2023-03-01T23:42:46;25.83;;;16.45;;
27424;SDS011;15244;49.088;11.886;2023-03-01T23:47:48;26.45;;;16.23;;
27424;SDS011;15244;49.088;11.886;2023-03-01T23:52:49;25.48;;;15.85;;
27424;SDS011;15244;49.088;11.886;2023-03-01T23:57:51;24.42;;;15.88;;
